Time;durP1;ratioP1;P1;durP2;ratioP2;P2;SDS_P1;SDS_P2;PMS_P1;PMS_P2;Temp;Humidity;BMP_temperature;BMP_pressure;BME280_temperature;BME280_humidity;BME280_pressure;Samples;Min_cycle;Max_cycle;Signal;HPM_P1;HPM_P2
2021/06/21 00:00:05;;;;;;;10.70;7.83;;;;;;;17.54;78.64;97543.09;1698584;84;20842;-76
2021/06/21 00:02:30;;;;;;;;;;;;;;;17.51;78.99;97532.79;1701248;84;21745;-75
2021/06/21 00:04:56;;;;;;;8.93;6.95;;;;;;;17.47;77.95;97527.20;1693460;84;20193;-75
2021/06/21 00:07:22;;;;;;;9.93;6.12;;;;;;;17.36;77.91;97519.17;1693728;84;20861;-76
2021/06/21 00:09:48;;;;;;;12.53;6.67;;;;;;;17.32;77.45;97519.59;1693460;84;20941;-76
2021/06/21 00:12:15;;;;;;;9.05;6.95;;;;;;;17.35;80.33;97514.83;1693824;84;20985;-75
2021/06/21 00:14:41;;;;;;;9.53;7.37;;;;;;;17.44;78.00;97511.45;1693574;84;21306;-75
2021/06/21 00:17:07;;;;;;;11.48;6.83;;;;;;;17.48;80.65;97508.82;1693507;84;20866;-75
2021/06/21 00:19:34;;;;;;;9.30;6.78;;;;;;;17.51;78.48;97504.03;1665718;84;20951;-75
2021/06/21 00:22:01;;;;;;;8.78;7.15;;;;;;;17.53;78.67;97512.73;1656501;85;20998;-75
2021/06/21 00:24:27;;;;;;;8.33;7.25;;;;;;;17.51;80.59;97510.88;1692148;83;20993;-76
2021/06/21 00:26:53;;;;;;;10.53;6.67;;;;;;;17.51;80.72;97513.61;1690949;84;21921;-76
2021/06/21 00:29:19;;;;;;;7.50;6.17;;;;;;;17.55;80.52;97512.39;1669085;85;21500;-75
2021/06/21 00:31:45;;;;;;;10.88;7.62;;;;;;;17.58;79.18;97508.39;1691057;84;21327;-76
2021/06/21 00:34:11;;;;;;;10.28;8.28;;;;;;;17.60;78.60;97506.11;1691159;84;20834;-76
2021/06/21 00:36:37;;;;;;;10.35;8.00;;;;;;;17.66;78.12;97503.40;1691088;84;20977;-76
2021/06/21 00:39:05;;;;;;;10.40;8.15;;;;;;;17.74;77.83;97505.86;1691145;84;21150;-76
2021/06/21 00:41:32;;;;;;;9.18;7.15;;;;;;;17.76;77.77;97503.56;1691079;84;20985;-75
2021/06/21 00:43:57;;;;;;;6.70;5.95;;;;;;;17.64;78.35;97494.73;1691077;84;20970;-76
2021/06/21 00:46:23;;;;;;;8.28;6.67;;;;;;;17.56;77.63;97479.17;1691010;84;20854;-76
2021/06/21 00:48:49;;;;;;;11.45;7.00;;;;;;;17.42;78.14;97483.57;1691101;84;20973;-76
2021/06/21 00:51:15;;;;;;;10.48;7.85;;;;;;;17.30;79.45;97479.43;1691046;84;21046;-76
2021/06/21 00:53:42;;;;;;;10.75;6.67;;;;;;;17.24;79.25;97478.60;1691483;85;21004;-75
2021/06/21 00:59:49;;;;;;;8.50;7.00;;;;;;;17.15;80.49;97480.84;1690973;85;20986;-75
2021/06/21 01:02:17;;;;;;;11.53;8.38;;;;;;;17.17;78.88;97470.35;1691052;84;21020;-76
2021/06/21 01:04:43;;;;;;;9.08;8.08;;;;;;;17.18;79.12;97461.59;1691041;84;21370;-76
2021/06/21 01:07:09;;;;;;;8.90;7.08;;;;;;;17.18;78.50;97454.76;1691081;84;21576;-76
2021/06/21 01:09:35;;;;;;;9.05;7.17;;;;;;;17.19;79.03;97459.09;1691132;84;20926;-75
2021/06/21 01:12:05;;;;;;;10.05;7.85;;;;;;;17.14;79.06;97461.45;1691106;84;20934;-76
2021/06/21 01:14:43;;;;;;;10.32;7.65;;;;;;;17.12;78.76;97449.25;1666650;84;21042;-75
2021/06/21 01:17:21;;;;;;;8.70;6.87;;;;;;;17.16;78.58;97459.17;1691788;84;21163;-76
2021/06/21 01:20:14;;;;;;;8.13;6.80;;;;;;;17.25;78.27;97441.87;1691120;84;21010;-76
2021/06/21 01:23:37;;;;;;;8.83;6.80;;;;;;;17.30;78.27;97436.99;1691554;84;20990;-75
2021/06/21 01:26:28;;;;;;;9.98;7.35;;;;;;;17.25;80.04;97439.13;1690937;85;20982;-75
2021/06/21 01:29:31;;;;;;;8.30;6.30;;;;;;;17.12;78.96;97434.19;1681387;84;20926;-76
2021/06/21 01:32:26;;;;;;;9.80;7.67;;;;;;;17.03;79.07;97433.47;1690710;84;21434;-75
2021/06/21 01:34:55;;;;;;;8.68;7.22;;;;;;;16.98;79.05;97437.20;1690893;85;21038;-75
2021/06/21 01:37:21;;;;;;;9.35;7.72;;;;;;;16.96;78.32;97432.64;1690908;84;21021;-75
2021/06/21 01:39:48;;;;;;;8.53;7.15;;;;;;;16.87;77.71;97431.91;1691043;85;21548;-76
2021/06/21 01:42:16;;;;;;;11.10;8.05;;;;;;;16.75;78.15;97428.56;1690963;85;20942;-76
2021/06/21 01:44:44;;;;;;;8.05;7.25;;;;;;;16.75;78.11;97431.83;1691005;85;21258;-75
2021/06/21 01:47:11;;;;;;;10.57;7.50;;;;;;;16.76;78.39;97427.98;1691124;85;20989;-76
2021/06/21 01:49:39;;;;;;;8.00;6.37;;;;;;;16.78;78.98;97429.25;1691046;84;21174;-75
2021/06/21 01:52:24;;;;;;;9.78;6.90;;;;;;;16.81;79.22;97426.41;1691079;85;20983;-75
2021/06/21 01:54:56;;;;;;;10.15;7.03;;;;;;;16.74;79.63;97424.20;1691116;85;21044;-75
2021/06/21 01:57:28;;;;;;;8.48;6.53;;;;;;;16.64;79.42;97417.16;1669126;85;22996;-74
2021/06/21 02:00:33;;;;;;;10.85;7.03;;;;;;;16.65;79.69;97413.86;1690963;84;20966;-75
2021/06/21 02:03:04;;;;;;;9.25;6.35;;;;;;;16.69;80.08;97412.10;1690483;84;21387;-75
2021/06/21 02:05:31;;;;;;;7.83;6.75;;;;;;;16.71;80.29;97403.56;1691276;85;20870;-75
2021/06/21 02:07:57;;;;;;;10.23;7.45;;;;;;;16.68;80.15;97405.58;1691286;84;21002;-76
2021/06/21 02:10:39;;;;;;;9.53;7.92;;;;;;;16.63;80.05;97405.99;1690896;84;21345;-75
2021/06/21 02:13:06;;;;;;;10.50;7.55;;;;;;;16.59;79.97;97405.07;1691224;85;21023;-76
2021/06/21 02:15:31;;;;;;;14.30;7.47;;;;;;;16.52;79.52;97404.80;1691369;84;21057;-76
2021/06/21 02:17:57;;;;;;;8.15;6.62;;;;;;;16.40;79.94;97401.97;1691386;84;21121;-75
2021/06/21 02:20:24;;;;;;;9.35;6.65;;;;;;;16.36;79.35;97411.42;1691233;84;20977;-75
2021/06/21 02:22:49;;;;;;;8.88;6.90;;;;;;;16.30;79.19;97410.56;1691123;84;21171;-75
2021/06/21 02:25:15;;;;;;;13.38;7.58;;;;;;;16.25;79.03;97413.52;1697790;83;20846;-75
2021/06/21 02:27:41;;;;;;;7.65;6.80;;;;;;;16.29;80.20;97421.27;1693734;84;20874;-75
2021/06/21 02:30:13;;;;;;;10.90;7.58;;;;;;;16.35;80.20;97415.29;1693537;84;20929;-75
2021/06/21 02:32:42;;;;;;;7.05;6.35;;;;;;;16.44;80.78;97413.06;1698544;84;21013;-75
2021/06/21 02:35:10;;;;;;;10.28;6.95;;;;;;;16.46;80.90;97407.48;1698072;84;21149;-76
2021/06/21 02:37:36;;;;;;;8.03;6.83;;;;;;;16.53;80.16;97413.23;1698468;84;21025;-75
2021/06/21 02:40:06;;;;;;;7.25;6.45;;;;;;;16.56;80.99;97414.49;1693633;84;21037;-75
2021/06/21 02:42:32;;;;;;;12.60;7.20;;;;;;;16.38;80.56;97410.28;1693436;83;21382;-75
2021/06/21 02:44:58;;;;;;;9.20;6.85;;;;;;;16.33;80.26;97416.76;1667290;86;20909;-75
2021/06/21 02:47:24;;;;;;;17.05;9.10;;;;;;;16.33;81.00;97416.19;1698668;84;21020;-75
2021/06/21 02:49:50;;;;;;;11.10;8.13;;;;;;;16.34;80.68;97414.25;1698598;84;20881;-75
2021/06/21 02:53:04;;;;;;;10.18;7.03;;;;;;;16.30;81.19;97415.47;1693595;84;20933;-75
2021/06/21 02:56:05;;;;;;;9.15;6.75;;;;;;;16.32;80.42;97418.70;1693861;84;21425;-75
2021/06/21 02:58:38;;;;;;;8.83;6.62;;;;;;;16.29;81.43;97410.34;1698508;84;20957;-75
2021/06/21 03:01:06;;;;;;;10.68;6.92;;;;;;;16.29;82.35;97404.30;1693792;84;21081;-74
2021/06/21 03:03:36;;;;;;;9.98;6.60;;;;;;;16.38;81.09;97413.81;1667430;86;20946;-75
2021/06/21 03:06:02;;;;;;;8.40;6.35;;;;;;;16.35;81.74;97412.55;1692148;84;21001;-75
2021/06/21 03:08:29;;;;;;;8.53;7.00;;;;;;;16.29;81.47;97408.97;1667399;86;20893;-75
2021/06/21 03:10:55;;;;;;;8.70;6.45;;;;;;;16.29;81.31;97413.87;1698817;84;21016;-75
2021/06/21 03:13:21;;;;;;;7.47;6.25;;;;;;;16.33;81.15;97409.36;1698805;84;22045;-75
2021/06/21 03:15:50;;;;;;;13.80;8.13;;;;;;;16.33;81.63;97409.92;1698746;84;20857;-75
2021/06/21 03:18:16;;;;;;;11.12;7.37;;;;;;;16.38;81.12;97408.91;1667403;86;21041;-76
2021/06/21 03:20:42;;;;;;;16.62;9.65;;;;;;;16.45;80.57;97414.09;1698596;84;20963;-76
2021/06/21 03:23:08;;;;;;;9.50;8.10;;;;;;;16.44;80.83;97413.86;1693680;84;20890;-75
2021/06/21 03:25:35;;;;;;;10.72;8.13;;;;;;;16.49;80.60;97415.05;1670783;84;21362;-76
2021/06/21 03:28:12;;;;;;;9.05;6.97;;;;;;;16.56;80.51;97411.76;1700811;84;21037;-76
2021/06/21 03:30:43;;;;;;;8.78;7.72;;;;;;;16.61;81.20;97415.67;1700996;84;21060;-75
2021/06/21 03:33:10;;;;;;;7.33;6.45;;;;;;;16.72;80.69;97418.83;1700659;84;20957;-75
2021/06/21 03:35:36;;;;;;;10.55;7.55;;;;;;;16.81;80.63;97414.89;1701083;84;21414;-75
2021/06/21 03:38:21;;;;;;;9.18;6.87;;;;;;;16.94;80.36;97415.76;1700751;84;21309;-75
2021/06/21 03:40:48;;;;;;;8.98;6.92;;;;;;;17.02;80.35;97414.09;1700936;84;21421;-75
2021/06/21 03:43:16;;;;;;;9.70;7.15;;;;;;;17.12;80.00;97413.66;1700665;84;21073;-75
2021/06/21 03:45:42;;;;;;;13.15;7.17;;;;;;;17.23;79.36;97417.57;1701396;84;21008;-75
2021/06/21 03:48:09;;;;;;;9.05;7.67;;;;;;;17.34;79.32;97414.63;1700839;84;20909;-75
2021/06/21 03:51:06;;;;;;;12.05;7.80;;;;;;;17.45;79.67;97421.30;1701121;84;21197;-75
2021/06/21 03:53:33;;;;;;;10.72;8.45;;;;;;;17.55;78.95;97428.84;1700234;83;20937;-76
2021/06/21 03:55:59;;;;;;;11.28;8.83;;;;;;;17.68;79.20;97424.41;1701084;84;21067;-76
2021/06/21 03:58:25;;;;;;;11.33;8.03;;;;;;;17.81;78.50;97417.05;1700801;84;20845;-76
2021/06/21 04:00:51;;;;;;;9.75;8.75;;;;;;;17.93;78.05;97414.88;1701021;84;21682;-76
2021/06/21 04:03:17;;;;;;;9.43;7.30;;;;;;;18.07;77.66;97412.60;1700742;84;21301;-76
2021/06/21 04:05:43;;;;;;;14.07;8.33;;;;;;;18.22;77.56;97405.64;1700960;84;20944;-76
2021/06/21 04:08:10;;;;;;;10.30;7.30;;;;;;;18.36;77.20;97408.80;1700711;84;20892;-76
2021/06/21 04:10:37;;;;;;;11.55;7.00;;;;;;;18.43;77.16;97412.34;1700909;84;20997;-76
2021/06/21 04:13:04;;;;;;;10.32;7.53;;;;;;;18.59;76.75;97399.51;1700757;84;21358;-76
2021/06/21 04:15:31;;;;;;;11.38;8.13;;;;;;;18.71;76.63;97402.23;1701356;84;21173;-76
2021/06/21 04:17:58;;;;;;;11.18;8.53;;;;;;;18.82;76.72;97401.20;1700778;84;20921;-76
2021/06/21 04:20:25;;;;;;;9.00;8.10;;;;;;;18.95;76.03;97403.31;1700766;84;21072;-76
2021/06/21 04:22:51;;;;;;;10.63;8.13;;;;;;;19.13;75.59;97403.23;1700842;84;21468;-76
2021/06/21 04:25:17;;;;;;;10.38;8.05;;;;;;;19.24;75.03;97404.92;1694133;83;20938;-76
2021/06/21 04:27:43;;;;;;;10.80;7.60;;;;;;;19.41;74.91;97401.85;1690994;84;21098;-76
2021/06/21 04:30:12;;;;;;;15.15;7.72;;;;;;;19.59;74.68;97398.22;1690933;85;20974;-76
2021/06/21 04:32:38;;;;;;;15.90;7.72;;;;;;;19.68;74.29;97408.47;1691127;84;21485;-76
2021/06/21 04:35:07;;;;;;;8.93;7.10;;;;;;;19.87;73.93;97411.30;1691035;84;21013;-76
2021/06/21 04:37:33;;;;;;;;;;;;;;;20.08;73.38;97415.72;1694803;84;21005;-76
2021/06/21 04:40:00;;;;;;;10.85;8.13;;;;;;;20.17;73.37;97411.66;1690981;84;21710;-76
2021/06/21 04:42:26;;;;;;;9.08;7.28;;;;;;;20.35;71.98;97412.06;1690963;84;20935;-76
2021/06/21 04:44:52;;;;;;;8.05;7.25;;;;;;;20.40;71.58;97409.59;1691045;84;20881;-76
2021/06/21 04:47:23;;;;;;;12.18;7.42;;;;;;;20.47;71.16;97411.97;1691138;84;20858;-76
2021/06/21 04:49:46;;;;;;;10.13;7.53;;;;;;;20.58;70.68;97410.82;1690889;84;21021;-76
2021/06/21 04:52:12;;;;;;;8.15;7.30;;;;;;;20.66;70.77;97408.44;1691179;84;21268;-76
2021/06/21 04:54:39;;;;;;;11.48;7.37;;;;;;;20.76;70.21;97402.36;1690906;84;21009;-76
2021/06/21 04:57:06;;;;;;;9.88;7.67;;;;;;;20.88;69.47;97409.70;1691061;84;21367;-76
2021/06/21 04:59:32;;;;;;;9.48;7.72;;;;;;;20.96;69.58;97414.20;1691068;84;21399;-76
2021/06/21 05:01:58;;;;;;;12.10;7.75;;;;;;;21.09;68.95;97410.13;1691206;84;20898;-76
2021/06/21 05:04:24;;;;;;;10.00;7.67;;;;;;;21.24;68.49;97413.17;1691086;84;21225;-77
2021/06/21 05:06:50;;;;;;;9.35;8.10;;;;;;;21.36;67.95;97416.61;1691094;84;21544;-76
2021/06/21 05:09:17;;;;;;;14.73;9.23;;;;;;;21.46;67.59;97418.55;1668934;85;45075;-76
2021/06/21 05:11:43;;;;;;;11.80;7.80;;;;;;;21.58;67.42;97416.41;1691044;85;20941;-76
2021/06/21 05:14:08;;;;;;;9.45;8.25;;;;;;;21.71;67.13;97419.80;1691145;84;20881;-76
2021/06/21 05:16:34;;;;;;;13.08;7.60;;;;;;;21.77;67.10;97412.80;1691271;84;21294;-76
2021/06/21 05:19:00;;;;;;;14.70;8.63;;;;;;;21.93;66.81;97414.85;1691143;84;21007;-76
2021/06/21 05:21:27;;;;;;;11.80;8.73;;;;;;;22.10;66.07;97404.52;1691318;84;21618;-77
2021/06/21 05:23:53;;;;;;;12.80;8.60;;;;;;;;;;1691359;84;21006;-76
2021/06/21 05:26:19;;;;;;;13.00;8.80;;;;;;;22.37;65.49;97413.01;1698254;83;21039;-76
2021/06/21 05:28:45;;;;;;;16.17;11.95;;;;;;;22.41;65.91;97411.11;1698434;84;20973;-76
2021/06/21 05:31:10;;;;;;;8.85;7.80;;;;;;;22.56;65.67;97409.36;1698582;84;20857;-76
2021/06/21 05:33:36;;;;;;;9.55;7.15;;;;;;;22.71;65.09;97404.81;1698538;84;20857;-76
2021/06/21 05:36:03;;;;;;;16.65;9.98;;;;;;;22.86;64.50;97407.22;1698755;84;20973;-76
2021/06/21 05:38:29;;;;;;;18.07;15.40;;;;;;;22.99;64.17;97404.44;1698482;84;20922;-76
2021/06/21 05:40:55;;;;;;;10.25;7.92;;;;;;;23.04;63.42;97410.41;1698671;84;21152;-76
2021/06/21 05:43:21;;;;;;;11.90;8.25;;;;;;;23.10;62.96;97412.27;1693449;84;20902;-76
2021/06/21 05:45:47;;;;;;;10.20;7.37;;;;;;;23.19;62.84;97410.59;1698678;84;21651;-76
2021/06/21 05:48:13;;;;;;;11.60;8.30;;;;;;;23.31;62.20;97413.08;1698787;84;20845;-76
2021/06/21 05:50:39;;;;;;;15.80;8.80;;;;;;;23.43;62.14;97407.31;1699075;84;20913;-76
2021/06/21 05:53:05;;;;;;;17.17;12.58;;;;;;;23.57;61.29;97404.67;1698551;84;21326;-76
2021/06/21 05:55:31;;;;;;;8.23;7.37;;;;;;;23.63;60.94;97407.34;1698819;84;21642;-76
2021/06/21 05:57:58;;;;;;;9.93;7.85;;;;;;;23.71;61.10;97411.56;1667434;86;20941;-76
2021/06/21 06:00:24;;;;;;;14.28;9.45;;;;;;;23.88;60.63;97415.08;1698669;84;21103;-76
2021/06/21 06:02:50;;;;;;;14.80;9.05;;;;;;;24.01;60.03;97412.80;1693754;84;21639;-76
2021/06/21 06:05:16;;;;;;;11.57;8.95;;;;;;;24.08;59.86;97415.05;1698725;84;21349;-76
2021/06/21 06:07:42;;;;;;;13.85;9.25;;;;;;;24.23;59.40;97411.81;1667276;86;20909;-76
2021/06/21 06:10:10;;;;;;;10.18;7.72;;;;;;;24.24;59.02;97416.75;1698634;84;20997;-76
2021/06/21 06:12:36;;;;;;;9.08;8.20;;;;;;;24.33;59.86;97408.94;1667459;86;20954;-76
2021/06/21 06:15:03;;;;;;;10.95;7.97;;;;;;;24.57;59.19;97400.60;1698558;84;21005;-76
2021/06/21 06:17:29;;;;;;;10.93;8.13;;;;;;;24.69;58.70;97399.67;1698661;84;21783;-76
2021/06/21 06:19:55;;;;;;;11.75;7.95;;;;;;;24.85;58.59;97397.18;1698582;84;20869;-76
2021/06/21 06:22:21;;;;;;;9.63;7.55;;;;;;;24.99;58.06;97399.44;1693879;84;20994;-76
2021/06/21 06:24:47;;;;;;;13.50;8.95;;;;;;;25.16;57.19;97397.95;1665793;84;21049;-76
2021/06/21 06:27:13;;;;;;;10.50;7.78;;;;;;;25.08;57.04;97397.72;1665997;84;21080;-76
2021/06/21 06:29:39;;;;;;;14.28;7.83;;;;;;;25.11;58.40;97386.44;1689324;84;21271;-76
2021/06/21 06:32:06;;;;;;;10.38;7.33;;;;;;;25.49;58.22;97389.13;1693818;84;20957;-76
2021/06/21 06:34:32;;;;;;;12.05;7.62;;;;;;;25.79;57.82;97379.87;1693959;84;20988;-76
2021/06/21 06:36:57;;;;;;;10.82;7.58;;;;;;;26.02;57.59;97373.95;1693789;84;20917;-76
2021/06/21 06:39:23;;;;;;;9.43;6.60;;;;;;;26.22;56.89;97380.47;1693602;84;21123;-76
2021/06/21 06:41:49;;;;;;;11.68;6.83;;;;;;;26.27;55.86;97378.09;1693839;84;21342;-77
2021/06/21 06:44:15;;;;;;;13.48;6.75;;;;;;;26.30;55.61;97382.84;1693474;84;20877;-76
2021/06/21 06:46:41;;;;;;;9.25;7.00;;;;;;;26.45;55.63;97373.14;1693711;84;21575;-76
2021/06/21 06:49:07;;;;;;;11.57;7.75;;;;;;;26.67;55.36;97371.30;1693518;84;20926;-76
2021/06/21 06:51:41;;;;;;;11.40;6.15;;;;;;;26.89;55.25;97368.44;1693552;84;21083;-76
2021/06/21 06:56:58;;;;;;;6.20;5.60;;;;;;;26.91;53.63;97376.56;1693783;84;21387;-76
2021/06/21 06:59:29;;;;;;;7.08;6.37;;;;;;;26.88;52.10;97369.64;1693591;84;21079;-76
2021/06/21 07:01:55;;;;;;;8.33;6.12;;;;;;;27.04;53.62;97370.00;1694005;84;21037;-76
2021/06/21 07:04:21;;;;;;;6.53;5.90;;;;;;;27.28;52.72;97359.17;1693531;84;21032;-77
2021/06/21 07:06:47;;;;;;;24.27;18.73;;;;;;;27.34;52.64;97360.30;1693515;84;21979;-76
2021/06/21 07:09:13;;;;;;;10.35;6.92;;;;;;;27.48;52.26;97356.05;1665785;84;20930;-76
2021/06/21 07:11:40;;;;;;;11.60;6.22;;;;;;;27.65;51.66;97362.09;1693909;84;20905;-76
2021/06/21 07:14:07;;;;;;;7.53;5.62;;;;;;;27.91;51.70;97363.52;1693548;84;20994;-76
2021/06/21 07:17:21;;;;;;;9.68;6.30;;;;;;;28.09;50.32;97361.98;1660295;86;20993;-77
2021/06/21 07:19:47;;;;;;;8.38;5.72;;;;;;;28.13;51.24;97352.22;1693500;84;21319;-76
2021/06/21 07:22:12;;;;;;;9.90;5.85;;;;;;;28.43;50.68;97355.72;1693793;84;20937;-75
2021/06/21 07:24:38;;;;;;;7.25;6.15;;;;;;;28.88;48.49;97350.25;1693419;83;20960;-75
2021/06/21 07:27:05;;;;;;;11.93;7.35;;;;;;;28.88;48.49;97350.25;1640884;87;21024;-76
2021/06/21 07:29:31;;;;;;;13.13;5.92;;;;;;;29.10;48.44;97356.97;1669410;85;21031;-75
2021/06/21 07:31:57;;;;;;;6.10;5.50;;;;;;;29.12;46.43;97352.55;1681300;85;21336;-76
2021/06/21 07:34:23;;;;;;;6.97;5.87;;;;;;;29.21;47.45;97350.03;1681113;85;20985;-76
2021/06/21 07:36:49;;;;;;;8.55;5.80;;;;;;;29.16;47.41;97350.52;1681707;85;20878;-75
2021/06/21 07:39:15;;;;;;;5.95;5.42;;;;;;;29.24;46.73;97354.61;1681171;85;20815;-76
2021/06/21 07:41:41;;;;;;;7.00;5.58;;;;;;;29.32;45.93;97355.48;1681434;85;20957;-75
2021/06/21 07:44:06;;;;;;;6.10;5.53;;;;;;;29.08;47.02;97349.03;1681167;85;21149;-76
2021/06/21 07:46:32;;;;;;;10.05;5.95;;;;;;;29.45;46.80;97348.11;1681417;85;20906;-76
2021/06/21 07:48:59;;;;;;;5.58;5.08;;;;;;;29.83;45.99;97350.77;1681186;85;21040;-76
2021/06/21 07:51:25;;;;;;;7.00;6.30;;;;;;;29.90;45.14;97348.44;1681655;85;20966;-76
2021/06/21 07:53:52;;;;;;;10.20;5.58;;;;;;;30.09;45.37;97347.77;1681233;85;20957;-76
2021/06/21 07:56:19;;;;;;;9.27;5.73;;;;;;;30.40;44.98;97344.82;1681630;85;21372;-77
2021/06/21 07:58:45;;;;;;;7.95;5.33;;;;;;;30.84;43.48;97347.78;1681258;85;21375;-77
2021/06/21 08:01:14;;;;;;;5.72;5.12;;;;;;;31.21;43.14;97344.44;1681326;85;20906;-77
2021/06/21 08:03:41;;;;;;;7.62;4.75;;;;;;;31.74;41.88;97337.64;1681175;85;20985;-76
2021/06/21 08:06:10;;;;;;;14.13;9.30;;;;;;;32.10;40.59;97340.98;1680995;85;20985;-76
2021/06/21 08:08:36;;;;;;;5.97;4.83;;;;;;;32.14;41.74;97345.91;1681075;85;21864;-76
2021/06/21 08:11:02;;;;;;;12.35;4.90;;;;;;;32.82;41.18;97339.29;1681584;85;21037;-76
2021/06/21 08:13:28;;;;;;;11.00;5.03;;;;;;;33.16;40.59;97342.94;1681262;85;21589;-76
2021/06/21 08:15:54;;;;;;;5.60;4.50;;;;;;;33.52;39.57;97331.43;1681718;85;21465;-76
2021/06/21 08:18:20;;;;;;;4.75;4.25;;;;;;;34.20;39.39;97333.45;1681247;85;20990;-76
2021/06/21 08:20:46;;;;;;;6.28;3.20;;;;;;;34.45;35.37;97334.81;1681429;85;21550;-76
2021/06/21 08:23:14;;;;;;;3.50;3.20;;;;;;;34.48;33.44;97333.89;1681235;85;21631;-76
2021/06/21 08:25:40;;;;;;;11.90;3.45;;;;;;;35.05;34.38;97338.09;1680547;83;28223;-76
2021/06/21 08:28:06;;;;;;;7.97;3.40;;;;;;;35.17;33.54;97336.44;1609797;88;21397;-76
2021/06/21 08:30:32;;;;;;;11.05;5.03;;;;;;;35.18;33.37;97338.00;1688429;85;21591;-76
2021/06/21 08:32:58;;;;;;;5.05;4.28;;;;;;;34.99;35.41;97331.48;1688347;84;21826;-76
2021/06/21 08:35:24;;;;;;;7.78;4.40;;;;;;;34.71;34.28;97331.27;1688158;85;21024;-76
2021/06/21 08:37:50;;;;;;;6.62;4.25;;;;;;;35.51;34.79;97318.02;1668757;85;21040;-76
2021/06/21 08:40:19;;;;;;;47.73;5.67;;;;;;;35.68;34.56;97317.14;1688266;84;20865;-76
2021/06/21 08:42:45;;;;;;;7.33;4.20;;;;;;;35.30;34.25;97328.70;1688263;85;20922;-78
2021/06/21 08:45:12;;;;;;;4.78;3.58;;;;;;;35.87;33.80;97317.35;1705667;83;21321;-75
2021/06/21 08:47:38;;;;;;;8.43;3.80;;;;;;;36.11;31.93;97316.81;1711608;83;21014;-77
2021/06/21 08:50:07;;;;;;;4.45;3.22;;;;;;;36.53;31.78;97314.22;1715813;83;20866;-77
2021/06/21 08:52:33;;;;;;;4.95;4.12;;;;;;;37.17;30.49;97318.37;1715940;83;21025;-77
2021/06/21 08:55:06;;;;;;;13.35;9.48;;;;;;;37.07;30.72;97320.28;1716191;83;21068;-77
2021/06/21 08:57:38;;;;;;;6.42;4.22;;;;;;;36.86;31.04;97323.48;1711449;84;21746;-77
2021/06/21 09:00:08;;;;;;;8.40;4.20;;;;;;;36.67;32.12;97324.88;1716078;83;21033;-77
2021/06/21 09:02:34;;;;;;;7.37;3.72;;;;;;;37.27;31.80;97327.00;1711255;83;20966;-77
2021/06/21 09:05:00;;;;;;;6.58;4.20;;;;;;;37.15;31.06;97319.48;1716166;83;21017;-77
2021/06/21 09:07:28;;;;;;;7.78;5.92;;;;;;;37.40;29.49;97328.86;1711811;83;21018;-77
2021/06/21 09:09:56;;;;;;;8.08;7.28;;;;;;;37.60;30.84;97331.13;1711241;83;21351;-77
2021/06/21 09:12:30;;;;;;;5.30;4.75;;;;;;;37.76;30.76;97322.27;1716505;83;21044;-77
2021/06/21 09:14:58;;;;;;;7.53;4.17;;;;;;;37.64;30.70;97318.41;1690674;84;20937;-76
2021/06/21 09:17:26;;;;;;;7.35;4.35;;;;;;;38.00;29.60;97321.69;1711236;83;21411;-76
2021/06/21 09:20:00;;;;;;;7.03;5.78;;;;;;;37.31;30.06;97319.00;1716114;83;21044;-76
2021/06/21 09:22:42;;;;;;;4.72;3.62;;;;;;;37.67;30.19;97314.61;1711429;83;21071;-76
2021/06/21 09:25:19;;;;;;;5.30;3.83;;;;;;;37.58;29.47;97317.48;1710896;83;20988;-76
2021/06/21 09:28:01;;;;;;;5.53;4.58;;;;;;;37.95;28.86;97306.03;1716459;83;20972;-77
2021/06/21 09:30:27;;;;;;;6.85;3.58;;;;;;;38.37;28.05;97310.95;1715816;82;20993;-77
2021/06/21 09:32:56;;;;;;;6.42;3.70;;;;;;;39.19;27.34;97308.66;1711210;83;21056;-77
2021/06/21 09:35:34;;;;;;;6.87;3.50;;;;;;;39.65;25.27;97304.66;1716095;83;21438;-78
2021/06/21 09:38:04;;;;;;;6.12;3.80;;;;;;;40.41;25.36;97301.84;1716555;83;20989;-77
2021/06/21 09:40:42;;;;;;;5.15;3.47;;;;;;;40.04;24.88;97304.47;1711689;84;21044;-78
2021/06/21 09:43:33;;;;;;;7.55;3.87;;;;;;;39.80;24.92;97306.67;1694278;83;20989;-77
2021/06/21 09:46:12;;;;;;;7.17;3.60;;;;;;;39.57;25.33;97315.47;1715811;83;20987;-78
2021/06/21 09:48:46;;;;;;;7.83;3.83;;;;;;;39.40;25.08;97306.70;1711201;84;21076;-78
2021/06/21 09:51:31;;;;;;;6.28;3.70;;;;;;;39.67;24.54;97303.55;1711215;83;21016;-78
2021/06/21 09:54:13;;;;;;;8.35;3.60;;;;;;;39.42;24.00;97300.68;1717920;83;20966;-78
2021/06/21 09:56:46;;;;;;;5.92;3.45;;;;;;;40.67;24.11;97300.48;1711229;84;21445;-77
2021/06/21 09:59:29;;;;;;;4.83;3.35;;;;;;;41.26;23.43;97303.54;1716161;83;21041;-77
2021/06/21 10:02:11;;;;;;;4.90;3.25;;;;;;;40.76;22.14;97300.33;1711073;84;21203;-78
2021/06/21 10:04:40;;;;;;;3.60;3.30;;;;;;;40.08;23.44;97296.52;1716086;83;20914;-77
2021/06/21 10:07:08;;;;;;;5.92;3.35;;;;;;;38.12;24.42;97304.98;1716835;83;20974;-77
2021/06/21 10:09:34;;;;;;;5.42;3.80;;;;;;;36.62;27.05;97300.10;1687696;84;20937;-77
2021/06/21 10:12:00;;;;;;;6.15;3.55;;;;;;;38.09;26.20;97297.59;1670804;83;20893;-77
2021/06/21 10:14:27;;;;;;;5.53;2.98;;;;;;;39.27;25.09;97299.13;1711168;84;21848;-77
2021/06/21 10:16:53;;;;;;;7.22;3.47;;;;;;;40.44;23.06;97295.22;1694184;83;21025;-77
2021/06/21 10:19:20;;;;;;;4.42;3.40;;;;;;;40.92;22.93;97291.09;1711060;83;21033;-78
2021/06/21 10:21:53;;;;;;;7.03;3.58;;;;;;;41.72;21.73;97284.97;1716541;83;21433;-78
2021/06/21 10:24:19;;;;;;;4.42;3.50;;;;;;;42.34;21.46;97280.38;1711077;84;20957;-78
2021/06/21 10:26:53;;;;;;;10.10;3.50;;;;;;;43.20;20.93;97282.94;1718807;83;21028;-78
2021/06/21 10:29:17;;;;;;;8.08;3.70;;;;;;;42.10;20.46;97288.52;1719632;83;20917;-76
2021/06/21 10:31:43;;;;;;;3.85;3.40;;;;;;;42.30;20.99;97277.63;1721230;83;20997;-76
2021/06/21 10:34:09;;;;;;;12.33;3.70;;;;;;;42.70;20.52;97273.00;1721156;83;21028;-76
2021/06/21 10:36:48;;;;;;;12.05;3.20;;;;;;;41.32;21.81;97275.98;1721308;83;21515;-76
2021/06/21 10:39:20;;;;;;;4.05;2.90;;;;;;;40.12;23.23;97274.41;1721009;83;21965;-77
2021/06/21 10:42:10;;;;;;;9.35;3.52;;;;;;;38.20;25.27;97278.69;1721173;83;20969;-77
2021/06/21 10:44:42;;;;;;;5.72;3.60;;;;;;;37.81;26.68;97273.59;1716768;83;20933;-77
2021/06/21 10:47:41;;;;;;;5.12;3.90;;;;;;;38.55;25.64;97280.95;1721140;83;21064;-77
2021/06/21 10:50:22;;;;;;;8.25;3.33;;;;;;;39.81;23.87;97277.83;1715567;83;20926;-77
2021/06/21 10:52:54;;;;;;;6.58;3.58;;;;;;;41.52;22.61;97268.76;1720604;83;21445;-77
2021/06/21 10:55:26;;;;;;;7.90;3.55;;;;;;;41.69;22.00;97265.38;1720851;83;21008;-77
2021/06/21 10:58:05;;;;;;;9.38;3.33;;;;;;;42.00;21.21;97264.42;1721184;83;20973;-77
2021/06/21 11:00:48;;;;;;;6.10;3.80;;;;;;;40.35;22.54;97263.34;1692234;83;20969;-77
2021/06/21 11:03:30;;;;;;;10.03;3.80;;;;;;;41.05;22.56;97262.44;1721036;83;20989;-77
2021/06/21 11:06:07;;;;;;;4.20;2.62;;;;;;;41.36;22.07;97257.44;1721081;83;21438;-77
2021/06/21 11:08:47;;;;;;;3.20;2.90;;;;;;;41.05;21.27;97254.56;1716607;83;20930;-77
2021/06/21 11:11:43;;;;;;;6.87;2.98;;;;;;;40.99;21.00;97251.66;1720424;82;21047;-77
2021/06/21 11:14:18;;;;;;;7.58;3.92;;;;;;;41.32;20.46;97253.25;1709319;82;20984;-81
2021/06/21 11:16:46;;;;;;;6.15;3.17;;;;;;;40.96;21.48;97256.16;1720234;83;20964;-76
2021/06/21 11:19:21;;;;;;;6.78;3.15;;;;;;;41.32;20.81;97248.34;1713673;83;21288;-76
2021/06/21 11:21:58;;;;;;;7.25;3.85;;;;;;;41.94;20.85;97252.36;1682689;84;20901;-77
2021/06/21 11:24:43;;;;;;;6.08;3.08;;;;;;;42.70;20.02;97245.17;1725331;83;20913;-76
2021/06/21 11:27:15;;;;;;;6.25;3.08;;;;;;;43.00;19.17;97240.59;1660795;85;21112;-76
2021/06/21 11:29:47;;;;;;;14.53;6.15;;;;;;;42.12;19.49;97247.53;1715359;83;21025;-76
2021/06/21 11:32:14;;;;;;;5.08;3.00;;;;;;;42.23;19.49;97241.28;1716959;83;21810;-76
2021/06/21 11:35:00;;;;;;;9.80;3.77;;;;;;;42.49;19.48;97239.67;1691094;83;21006;-76
2021/06/21 11:37:36;;;;;;;6.75;2.98;;;;;;;42.68;19.80;97247.77;1708510;83;21004;-75
2021/06/21 11:40:22;;;;;;;6.47;2.70;;;;;;;43.40;19.07;97244.20;1716439;83;20985;-75
2021/06/21 11:43:06;;;;;;;10.60;3.58;;;;;;;41.41;20.47;97242.47;1701466;83;21068;-81
2021/06/21 11:45:56;;;;;;;9.55;3.30;;;;;;;42.00;20.80;97228.87;1687185;83;21153;-80
2021/06/21 11:48:35;;;;;;;7.37;3.87;;;;;;;43.04;19.81;97231.77;1715163;83;20993;-80
2021/06/21 11:51:15;;;;;;;10.05;3.60;;;;;;;42.81;19.79;97226.67;1679105;84;20985;-77